createdAt,value
2023-05-19T00:05:31.259Z,64
2023-05-19T00:06:43.916Z,64
2023-05-19T00:10:22.881Z,64
2023-05-19T00:20:07.164Z,65
2023-05-19T00:31:04.080Z,66
2023-05-19T00:32:16.916Z,66
2023-05-19T00:33:29.969Z,66
2023-05-19T00:34:42.934Z,66
2023-05-19T00:38:21.834Z,67
2023-05-19T00:45:40.158Z,68
2023-05-19T00:46:52.921Z,68
2023-05-19T00:49:18.392Z,68
2023-05-19T00:51:45.432Z,68
2023-05-19T00:57:50.563Z,68
2023-05-19T01:03:54.978Z,69
2023-05-19T01:13:42.319Z,70
2023-05-19T01:16:04.900Z,70
2023-05-19T01:40:24.635Z,71
2023-05-19T01:56:13.682Z,72
2023-05-19T01:59:52.979Z,72
2023-05-19T02:02:18.810Z,72
2023-05-19T02:12:02.875Z,73
2023-05-19T02:13:15.844Z,73
2023-05-19T02:25:25.736Z,73
2023-05-19T02:30:18.262Z,74
2023-05-19T02:36:22.861Z,74
2023-05-19T02:41:14.787Z,75
2023-05-19T02:43:41.429Z,75
2023-05-19T02:46:06.785Z,75
2023-05-19T03:00:42.902Z,75
2023-05-19T03:10:26.901Z,75
2023-05-19T03:12:52.737Z,75
2023-05-19T03:14:05.996Z,75
2023-05-19T03:21:23.868Z,76
2023-05-19T03:27:28.823Z,76
2023-05-19T03:28:41.984Z,76
2023-05-19T03:29:55.058Z,76
2023-05-19T03:31:08.028Z,76
2023-05-19T03:33:33.640Z,76
2023-05-19T03:34:47.001Z,76
2023-05-19T03:36:00.032Z,76
2023-05-19T03:37:13.039Z,76
2023-05-19T03:38:25.766Z,76
2023-05-19T03:39:39.022Z,76
2023-05-19T03:40:52.010Z,76
2023-05-19T03:42:05.460Z,76
2023-05-19T03:43:18.017Z,77
2023-05-19T03:44:31.046Z,77
2023-05-19T03:46:56.760Z,77
2023-05-19T03:48:10.134Z,77
2023-05-19T03:49:23.057Z,77
2023-05-19T03:51:48.867Z,78
2023-05-19T03:53:01.987Z,78
2023-05-19T03:54:14.894Z,78
2023-05-19T03:56:41.036Z,78
2023-05-19T03:57:54.032Z,78
2023-05-19T03:59:06.902Z,78
2023-05-19T04:00:20.023Z,78
2023-05-19T04:01:33.040Z,78
2023-05-19T04:02:46.053Z,77
2023-05-19T04:03:59.021Z,78
2023-05-19T04:05:12.004Z,78
2023-05-19T04:06:25.028Z,78
2023-05-19T04:10:04.036Z,78
2023-05-19T04:11:16.923Z,77
2023-05-19T04:12:30.022Z,77
2023-05-19T04:13:43.704Z,78
2023-05-19T04:14:56.112Z,78
2023-05-19T04:16:08.866Z,78
2023-05-19T04:17:22.021Z,77
2023-05-19T04:18:35.475Z,77
2023-05-19T04:21:01.073Z,77
2023-05-19T04:23:26.815Z,75
2023-05-19T06:03:13.353Z,62
2023-05-19T06:05:39.106Z,62
2023-05-19T06:08:05.093Z,62
2023-05-19T06:11:44.064Z,62
2023-05-19T06:12:57.430Z,61
2023-05-19T06:15:23.386Z,61
2023-05-19T06:16:36.081Z,61
2023-05-19T06:17:49.724Z,61
2023-05-19T06:19:02.071Z,61
2023-05-19T06:20:14.927Z,60
2023-05-19T06:21:28.047Z,60
2023-05-19T06:23:54.077Z,60
2023-05-19T06:25:06.834Z,60
2023-05-19T06:26:20.631Z,59
2023-05-19T06:27:35.717Z,58
2023-05-19T06:28:46.078Z,59
2023-05-19T06:29:59.064Z,59
2023-05-19T06:31:12.137Z,58
2023-05-19T06:32:24.794Z,58
2023-05-19T06:33:38.122Z,58
2023-05-19T06:34:50.884Z,58
2023-05-19T06:36:04.378Z,57
2023-05-19T06:37:17.131Z,57
2023-05-19T06:38:29.937Z,57
2023-05-19T06:39:43.013Z,56
2023-05-19T06:42:08.933Z,57
2023-05-19T06:44:35.078Z,56
2023-05-19T06:45:48.107Z,57
2023-05-19T06:47:01.143Z,57
2023-05-19T06:48:14.206Z,57
2023-05-19T06:49:27.073Z,57
2023-05-19T06:50:40.546Z,56
2023-05-19T06:51:53.370Z,56
2023-05-19T06:53:05.765Z,57
2023-05-19T06:54:19.682Z,55
2023-05-19T06:55:31.752Z,55
2023-05-19T06:56:45.143Z,54
2023-05-19T06:57:58.128Z,55
2023-05-19T06:59:10.898Z,54
2023-05-19T07:00:25.064Z,54
2023-05-19T07:01:37.063Z,53
2023-05-19T07:02:50.051Z,54
2023-05-19T07:04:03.087Z,53
2023-05-19T07:05:15.731Z,53
2023-05-19T07:06:29.384Z,53
2023-05-19T07:07:42.062Z,52
2023-05-19T07:08:54.898Z,52
2023-05-19T07:10:08.037Z,54
2023-05-19T07:11:21.028Z,54
2023-05-19T07:12:34.414Z,54
2023-05-19T07:13:47.047Z,55
2023-05-19T07:15:00.470Z,55
2023-05-19T07:16:13.294Z,54
2023-05-19T07:17:26.210Z,54
2023-05-19T07:18:39.617Z,54
2023-05-19T07:19:51.899Z,55
2023-05-19T07:21:05.633Z,54
2023-05-19T07:22:18.513Z,53
2023-05-19T07:27:10.430Z,51
2023-05-19T07:28:23.009Z,54
2023-05-19T07:29:35.905Z,53
2023-05-19T07:30:48.943Z,53
2023-05-19T07:33:15.119Z,52
2023-05-19T07:34:28.154Z,52
2023-05-19T07:35:41.429Z,51
2023-05-19T07:36:54.112Z,50
2023-05-19T07:38:07.158Z,52
2023-05-19T07:39:20.111Z,51
2023-05-19T07:40:33.086Z,51
2023-05-19T07:42:59.067Z,52
2023-05-19T07:44:11.971Z,51
2023-05-19T07:45:25.054Z,50
2023-05-19T07:46:38.120Z,51
2023-05-19T07:47:51.069Z,52
2023-05-19T07:51:30.446Z,51
2023-05-19T07:53:56.178Z,50
2023-05-19T07:56:21.897Z,49
2023-05-19T07:57:34.824Z,50
2023-05-19T07:58:47.907Z,49
2023-05-19T08:00:01.153Z,49
2023-05-19T08:01:13.911Z,48
2023-05-19T08:02:26.938Z,48
2023-05-19T08:03:40.154Z,48
2023-05-19T08:04:53.227Z,48
2023-05-19T08:06:06.075Z,49
2023-05-19T08:07:19.043Z,48
2023-05-19T08:08:31.909Z,48
2023-05-19T08:09:45.024Z,48
2023-05-19T08:10:57.700Z,49
2023-05-19T08:12:11.133Z,51
2023-05-19T08:13:24.031Z,50
2023-05-19T08:14:37.034Z,50
2023-05-19T08:15:50.145Z,49
2023-05-19T08:17:03.039Z,50
2023-05-19T08:18:16.141Z,49
2023-05-19T08:19:29.142Z,48
2023-05-19T08:20:41.897Z,49
2023-05-19T08:21:55.040Z,49
2023-05-19T08:23:08.412Z,49
2023-05-19T08:24:21.005Z,48
2023-05-19T08:25:33.920Z,48
2023-05-19T08:26:47.056Z,47
2023-05-19T08:28:00.105Z,47
2023-05-19T08:29:12.830Z,47
2023-05-19T08:31:39.096Z,47
2023-05-19T08:32:52.245Z,47
2023-05-19T08:34:05.062Z,47
2023-05-19T08:35:18.031Z,47
2023-05-19T08:36:31.016Z,47
2023-05-19T08:37:44.042Z,46
2023-05-19T08:38:57.048Z,45
2023-05-19T08:40:10.040Z,45
2023-05-19T08:41:23.644Z,45
2023-05-19T08:42:36.065Z,45
2023-05-19T08:43:49.054Z,45
2023-05-19T08:45:01.645Z,45
2023-05-19T08:46:15.124Z,45
2023-05-19T08:47:28.026Z,44
2023-05-19T08:48:41.073Z,44
2023-05-19T08:49:53.967Z,44
2023-05-19T08:51:07.005Z,44
2023-05-19T08:52:19.975Z,46
2023-05-19T08:53:36.009Z,45
2023-05-19T08:54:45.732Z,46
2023-05-19T08:55:58.973Z,45
2023-05-19T08:57:11.976Z,44
2023-05-19T08:58:25.118Z,43
2023-05-19T08:59:38.214Z,44
2023-05-19T09:00:51.055Z,46
2023-05-19T09:02:04.120Z,45
2023-05-19T09:03:23.662Z,45
2023-05-19T09:05:43.009Z,44
2023-05-19T09:06:56.017Z,44
2023-05-19T09:08:08.813Z,45
2023-05-19T09:09:22.029Z,44
2023-05-19T09:10:35.195Z,43
2023-05-19T09:11:48.002Z,43
2023-05-19T09:13:00.987Z,43
2023-05-19T09:14:14.692Z,45
2023-05-19T09:15:26.996Z,44
2023-05-19T09:16:40.396Z,45
2023-05-19T09:17:53.005Z,44
2023-05-19T09:19:05.986Z,42
2023-05-19T09:20:19.050Z,43
2023-05-19T09:21:32.109Z,42
2023-05-19T09:22:45.076Z,43
2023-05-19T09:23:58.262Z,44
2023-05-19T09:25:10.972Z,42
2023-05-19T09:26:24.406Z,41
2023-05-19T09:27:37.023Z,41
2023-05-19T09:28:49.976Z,40
2023-05-19T09:30:02.986Z,41
2023-05-19T09:32:28.729Z,41
2023-05-19T09:33:45.965Z,42
2023-05-19T09:34:54.764Z,44
2023-05-19T09:36:07.957Z,43
2023-05-19T09:37:20.980Z,41
2023-05-19T09:38:34.524Z,41
2023-05-19T09:40:59.978Z,41
2023-05-19T09:42:12.982Z,41
2023-05-19T09:43:25.964Z,41
2023-05-19T09:44:38.967Z,41
2023-05-19T09:45:51.973Z,40
2023-05-19T09:47:05.021Z,41
2023-05-19T09:48:18.017Z,41
2023-05-19T09:49:30.974Z,41
2023-05-19T09:50:44.041Z,41
2023-05-19T09:51:56.848Z,41
2023-05-19T09:53:09.929Z,40
2023-05-19T09:54:23.095Z,40
2023-05-19T09:55:36.000Z,40
2023-05-19T09:56:48.676Z,40
2023-05-19T09:58:02.572Z,41
2023-05-19T09:59:15.204Z,40
2023-05-19T10:00:27.978Z,40
2023-05-19T10:01:41.028Z,40
2023-05-19T10:02:54.107Z,40
2023-05-19T10:05:20.533Z,41
2023-05-19T10:06:32.874Z,40
2023-05-19T10:07:46.005Z,40
2023-05-19T10:08:58.812Z,40
2023-05-19T10:11:24.736Z,42
2023-05-19T10:12:38.417Z,41
2023-05-19T10:13:50.952Z,40
2023-05-19T10:15:03.967Z,40
2023-05-19T10:16:17.001Z,40
2023-05-19T10:17:30.008Z,40
2023-05-19T10:18:42.944Z,40
2023-05-19T10:19:55.945Z,42
2023-05-19T10:21:08.951Z,42
2023-05-19T10:23:34.954Z,41
2023-05-19T10:24:48.109Z,40
2023-05-19T10:28:27.023Z,41
2023-05-19T10:30:52.831Z,40
2023-05-19T10:33:18.889Z,40
2023-05-19T10:34:31.871Z,40
2023-05-19T10:35:46.035Z,40
2023-05-19T10:36:58.006Z,40
2023-05-19T10:38:11.178Z,41
2023-05-19T10:39:24.187Z,41
2023-05-19T10:40:36.973Z,40
2023-05-19T10:41:50.068Z,39
2023-05-19T10:43:03.066Z,39
2023-05-19T10:44:15.961Z,40
2023-05-19T10:45:28.654Z,40
2023-05-19T10:46:42.266Z,40
2023-05-19T10:49:07.743Z,40
2023-05-19T10:50:21.029Z,40
2023-05-19T10:51:33.940Z,40
2023-05-19T10:52:47.600Z,39
2023-05-19T10:53:59.953Z,39
2023-05-19T10:55:12.989Z,40
2023-05-19T10:56:26.007Z,40
2023-05-19T10:57:39.014Z,40
2023-05-19T10:58:52.168Z,40
2023-05-19T11:00:04.657Z,40
2023-05-19T11:01:17.882Z,39
2023-05-19T11:02:30.995Z,39
2023-05-19T11:03:43.932Z,40
2023-05-19T11:04:57.000Z,40
2023-05-19T11:06:09.939Z,40
2023-05-19T11:07:23.117Z,40
2023-05-19T11:08:36.318Z,40
2023-05-19T11:09:49.660Z,40
2023-05-19T11:11:01.944Z,40
2023-05-19T11:12:14.501Z,40
2023-05-19T11:13:28.946Z,41
2023-05-19T11:14:40.921Z,40
2023-05-19T11:15:53.957Z,40
2023-05-19T11:17:06.845Z,40
2023-05-19T11:18:19.873Z,39
2023-05-19T11:19:32.985Z,39
2023-05-19T11:20:45.849Z,39
2023-05-19T11:21:58.959Z,39
2023-05-19T11:23:12.135Z,40
2023-05-19T11:24:24.980Z,40
